createdAt,value
2022-10-10T00:00:47.799Z,76.73
2022-10-10T00:03:15.469Z,77.01
2022-10-10T00:05:44.833Z,76.49
2022-10-10T00:08:12.820Z,76.37
2022-10-10T00:10:40.852Z,76.55
2022-10-10T00:13:08.615Z,76.54
2022-10-10T00:15:36.291Z,76.37
2022-10-10T00:18:04.157Z,77.26
2022-10-10T00:20:31.892Z,76.97
2022-10-10T00:23:00.889Z,77.27
2022-10-10T00:25:28.923Z,77.41
2022-10-10T00:27:56.614Z,77.13
2022-10-10T00:30:24.280Z,77.78
2022-10-10T00:32:52.238Z,77.87
2022-10-10T00:35:20.202Z,78.37
2022-10-10T00:37:47.897Z,78.10
2022-10-10T00:40:16.930Z,78.43
2022-10-10T00:42:44.606Z,78.23
2022-10-10T00:45:39.613Z,78.26
2022-10-10T00:48:10.091Z,78.73
2022-10-10T00:50:40.744Z,78.40
2022-10-10T00:53:10.244Z,77.92
2022-10-10T00:55:39.365Z,77.65
2022-10-10T00:58:08.741Z,77.77
2022-10-10T01:00:36.725Z,77.59
2022-10-10T01:03:04.605Z,77.58
2022-10-10T01:05:32.795Z,77.66
2022-10-10T01:08:00.613Z,77.71
2022-10-10T01:10:28.493Z,77.21
2022-10-10T01:13:10.605Z,77.29
2022-10-10T01:15:47.159Z,77.09
2022-10-10T01:18:19.961Z,77.32
2022-10-10T01:20:57.084Z,77.52
2022-10-10T01:24:04.019Z,77.86
2022-10-10T01:26:47.318Z,78.02
2022-10-10T01:29:20.393Z,78.29
2022-10-10T01:31:51.213Z,77.70
2022-10-10T01:34:24.568Z,78.10
2022-10-10T01:36:55.256Z,77.76
2022-10-10T01:39:27.387Z,77.80
2022-10-10T01:41:58.986Z,78.00
2022-10-10T01:44:28.032Z,77.66
2022-10-10T01:46:55.779Z,77.30
2022-10-10T01:49:26.100Z,77.76
2022-10-10T01:52:06.057Z,77.51
2022-10-10T01:54:40.340Z,77.26
2022-10-10T01:57:17.858Z,77.32
2022-10-10T01:59:53.508Z,77.17
2022-10-10T02:02:24.653Z,77.76
2022-10-10T02:04:57.183Z,78.41
2022-10-10T02:07:27.807Z,78.09
2022-10-10T02:09:55.985Z,78.07
2022-10-10T02:12:24.615Z,78.10
2022-10-10T02:14:55.433Z,78.90
2022-10-10T02:17:25.609Z,78.89
2022-10-10T02:19:55.281Z,78.79
2022-10-10T02:22:23.523Z,78.93
2022-10-10T02:24:52.445Z,79.62
2022-10-10T02:27:23.437Z,79.54
2022-10-10T02:29:53.452Z,79.00
2022-10-10T02:32:27.760Z,78.46
2022-10-10T02:34:57.868Z,78.11
2022-10-10T02:37:26.145Z,77.36
2022-10-10T02:39:58.626Z,77.22
2022-10-10T02:42:27.539Z,77.53
2022-10-10T02:44:57.141Z,77.93
2022-10-10T02:47:24.873Z,78.18
2022-10-10T02:49:52.565Z,78.65
2022-10-10T02:52:20.297Z,78.19
2022-10-10T02:54:48.014Z,78.50
2022-10-10T02:57:15.669Z,79.29
2022-10-10T02:59:43.583Z,78.26
2022-10-10T03:02:12.617Z,78.37
2022-10-10T03:04:40.288Z,78.69
2022-10-10T03:07:07.955Z,78.96
2022-10-10T03:09:35.624Z,78.71
2022-10-10T03:12:04.555Z,78.29
2022-10-10T03:14:32.228Z,77.63
2022-10-10T03:17:00.329Z,77.36
2022-10-10T03:19:31.301Z,77.11
2022-10-10T03:21:58.943Z,77.70
2022-10-10T03:24:28.544Z,78.09
2022-10-10T03:26:56.215Z,77.55
2022-10-10T03:29:24.026Z,77.23
2022-10-10T03:31:51.713Z,77.10
2022-10-10T03:34:19.430Z,77.40
2022-10-10T03:36:48.503Z,77.06
2022-10-10T03:39:16.163Z,77.22
2022-10-10T03:41:43.821Z,77.02
2022-10-10T03:44:11.480Z,77.48
2022-10-10T03:46:39.466Z,77.29
2022-10-10T03:49:07.128Z,76.88
2022-10-10T03:51:34.807Z,77.82
2022-10-10T03:54:03.992Z,77.37
2022-10-10T03:56:31.656Z,77.85
2022-10-10T03:59:00.733Z,77.33
2022-10-10T04:01:30.256Z,77.31
2022-10-10T04:03:57.998Z,77.74
2022-10-10T04:06:25.918Z,77.87
2022-10-10T04:08:53.597Z,78.56
2022-10-10T04:11:22.563Z,77.99
2022-10-10T04:13:50.229Z,78.45
2022-10-10T04:16:17.883Z,79.58
2022-10-10T04:18:45.801Z,80.38
2022-10-10T04:21:13.471Z,81.22
2022-10-10T04:23:41.433Z,80.97
2022-10-10T04:26:09.259Z,80.77
2022-10-10T04:28:38.371Z,80.63
2022-10-10T04:31:06.270Z,80.86
2022-10-10T04:33:33.924Z,81.88
2022-10-10T04:36:03.082Z,82.00
2022-10-10T04:38:30.738Z,82.89
2022-10-10T04:40:58.492Z,82.82
2022-10-10T04:43:26.284Z,83.28
2022-10-10T04:45:56.938Z,83.86
2022-10-10T04:48:24.708Z,84.12
2022-10-10T04:50:52.955Z,83.97
2022-10-10T04:53:20.608Z,84.14
2022-10-10T04:55:48.449Z,83.67
2022-10-10T04:58:16.273Z,83.72
2022-10-10T05:00:44.002Z,84.42
2022-10-10T05:03:13.869Z,84.04
2022-10-10T05:05:41.534Z,85.17
2022-10-10T05:08:09.169Z,84.19
2022-10-10T05:10:38.704Z,83.41
2022-10-10T05:13:06.640Z,83.01
2022-10-10T05:15:35.511Z,82.80
2022-10-10T05:18:04.693Z,81.68
2022-10-10T05:20:34.621Z,82.86
2022-10-10T05:23:05.457Z,82.57
2022-10-10T05:25:33.121Z,84.16
2022-10-10T05:28:00.798Z,82.97
2022-10-10T05:30:28.456Z,82.08
2022-10-10T05:32:56.430Z,82.74
2022-10-10T05:35:24.176Z,83.55
2022-10-10T05:37:53.160Z,83.69
2022-10-10T05:40:20.823Z,84.48
2022-10-10T05:42:48.722Z,84.97
2022-10-10T05:45:16.700Z,85.17
2022-10-10T05:47:44.364Z,84.65
2022-10-10T05:50:23.649Z,84.84
2022-10-10T05:52:53.316Z,85.02
2022-10-10T05:55:21.385Z,84.94
2022-10-10T05:57:49.084Z,84.38
2022-10-10T06:00:16.990Z,84.02
2022-10-10T06:02:44.767Z,83.79
2022-10-10T06:05:12.530Z,82.81
2022-10-10T06:08:02.411Z,84.86
2022-10-10T06:10:30.911Z,84.49
2022-10-10T06:12:58.552Z,84.46
2022-10-10T06:15:26.423Z,84.86
2022-10-10T06:17:54.079Z,85.26
2022-10-10T06:20:21.748Z,85.12
2022-10-10T06:22:49.641Z,86.37
2022-10-10T06:25:38.308Z,86.11
2022-10-10T06:28:07.786Z,85.78
2022-10-10T06:30:35.532Z,85.49
2022-10-10T06:33:04.485Z,85.66
2022-10-10T06:35:32.158Z,84.96
2022-10-10T06:37:59.807Z,85.16
2022-10-10T06:40:27.533Z,84.88
2022-10-10T06:42:55.250Z,85.00
2022-10-10T06:45:24.932Z,84.40
2022-10-10T06:47:52.607Z,84.52
2022-10-10T06:50:20.277Z,83.95
2022-10-10T06:52:48.074Z,84.89
2022-10-10T06:55:16.043Z,85.38
2022-10-10T06:57:44.371Z,85.72
2022-10-10T07:00:13.125Z,85.56
2022-10-10T07:02:42.588Z,86.41
2022-10-10T07:05:12.189Z,87.35
2022-10-10T07:07:40.864Z,87.72
2022-10-10T07:10:10.945Z,87.38
2022-10-10T07:12:44.232Z,88.01
2022-10-10T07:15:12.827Z,87.79
2022-10-10T07:17:42.040Z,88.06
2022-10-10T07:20:10.519Z,88.18
2022-10-10T07:22:38.396Z,88.50
2022-10-10T07:25:06.749Z,88.49
2022-10-10T07:27:35.505Z,89.25
2022-10-10T07:30:06.112Z,89.57
2022-10-10T07:32:34.560Z,89.86
2022-10-10T07:35:05.376Z,89.78
2022-10-10T07:37:33.079Z,90.30
2022-10-10T07:40:01.042Z,90.70
2022-10-10T07:42:31.445Z,90.85
2022-10-10T07:44:59.096Z,90.80
2022-10-10T07:47:26.836Z,91.18
2022-10-10T07:49:54.520Z,91.23
2022-10-10T07:52:23.524Z,90.91
2022-10-10T07:54:51.198Z,91.44
2022-10-10T07:57:18.895Z,91.25
2022-10-10T07:59:46.601Z,90.80
2022-10-10T08:02:14.363Z,90.89
2022-10-10T08:04:42.215Z,91.24
2022-10-10T08:07:09.980Z,90.72
2022-10-10T08:09:39.415Z,90.12
2022-10-10T08:12:09.578Z,90.39
2022-10-10T08:14:37.399Z,88.73
2022-10-10T08:17:05.086Z,89.80
2022-10-10T08:19:32.796Z,89.06
2022-10-10T08:22:01.171Z,88.81
2022-10-10T08:24:29.639Z,88.57
2022-10-10T08:26:58.920Z,87.74
2022-10-10T08:29:26.725Z,88.39
2022-10-10T08:31:54.481Z,87.32
2022-10-10T08:34:22.225Z,86.70
2022-10-10T08:36:50.071Z,87.04
2022-10-10T08:39:18.015Z,86.46
2022-10-10T08:41:50.166Z,86.86
2022-10-10T08:44:23.992Z,86.09
2022-10-10T08:46:53.813Z,86.18
2022-10-10T08:49:25.361Z,86.31
2022-10-10T08:52:00.721Z,85.51
2022-10-10T08:54:30.797Z,85.95
2022-10-10T08:57:04.387Z,85.64
2022-10-10T08:59:36.246Z,84.92
2022-10-10T09:02:43.757Z,85.68
2022-10-10T09:05:18.903Z,84.90
2022-10-10T09:08:02.982Z,84.69
2022-10-10T09:10:33.947Z,85.27
2022-10-10T09:13:10.764Z,84.33
2022-10-10T09:15:46.195Z,83.58
2022-10-10T09:18:23.506Z,85.13
2022-10-10T09:20:56.659Z,84.84
2022-10-10T09:23:27.833Z,84.11
2022-10-10T09:25:59.177Z,85.31
2022-10-10T09:28:36.766Z,85.39
2022-10-10T09:31:06.790Z,85.28
2022-10-10T09:33:40.377Z,84.83
2022-10-10T09:36:14.237Z,84.93
2022-10-10T09:38:44.263Z,84.87
2022-10-10T09:41:16.531Z,84.44
2022-10-10T09:43:44.338Z,83.24
2022-10-10T09:46:12.145Z,84.78
2022-10-10T09:48:42.524Z,83.15
2022-10-10T09:51:14.356Z,84.06
2022-10-10T09:53:42.313Z,84.92
2022-10-10T09:56:16.140Z,83.17
2022-10-10T09:58:45.268Z,83.14
2022-10-10T10:01:15.786Z,82.56
2022-10-10T10:03:45.637Z,83.53
2022-10-10T10:06:15.279Z,83.68
2022-10-10T10:08:46.762Z,82.60
2022-10-10T10:11:28.574Z,82.71
2022-10-10T10:13:57.369Z,83.26
2022-10-10T10:16:31.900Z,81.44
2022-10-10T10:19:00.964Z,82.21
2022-10-10T10:21:31.166Z,82.35
2022-10-10T10:24:00.219Z,81.56
2022-10-10T10:26:34.089Z,82.72
2022-10-10T10:29:01.751Z,80.98
2022-10-10T10:31:44.852Z,81.71
2022-10-10T10:34:27.250Z,81.61
2022-10-10T10:36:58.309Z,80.74
2022-10-10T10:39:36.300Z,80.51
2022-10-10T10:42:11.669Z,79.17
2022-10-10T10:44:43.538Z,79.30
2022-10-10T10:47:23.454Z,79.44
2022-10-10T10:50:03.006Z,78.76
2022-10-10T10:52:42.173Z,78.49
2022-10-10T10:55:17.715Z,78.20
2022-10-10T10:58:15.161Z,77.72
2022-10-10T11:01:38.535Z,78.38
2022-10-10T11:05:20.778Z,77.22
2022-10-10T11:07:16.796Z,78.41
2022-10-10T11:09:50.146Z,77.42
2022-10-10T11:12:26.392Z,77.51
2022-10-10T11:14:57.831Z,77.04
2022-10-10T11:17:34.912Z,77.34
2022-10-10T11:20:09.658Z,77.95
2022-10-10T11:22:46.361Z,78.22
2022-10-10T11:25:17.668Z,77.16
2022-10-10T11:27:47.941Z,76.10
2022-10-10T11:30:17.594Z,77.07
2022-10-10T11:32:51.652Z,78.65
2022-10-10T11:35:26.044Z,77.48
2022-10-10T11:38:00.027Z,77.47
2022-10-10T11:40:34.438Z,77.63
2022-10-10T11:43:04.251Z,76.37
2022-10-10T11:45:35.564Z,78.41
2022-10-10T11:48:08.771Z,77.04
2022-10-10T11:50:41.343Z,76.44
2022-10-10T11:53:16.059Z,76.90
2022-10-10T11:55:50.264Z,75.58
2022-10-10T11:58:26.484Z,75.97
2022-10-10T12:00:58.180Z,75.02
2022-10-10T12:03:26.252Z,76.02
2022-10-10T12:05:58.034Z,76.05
2022-10-10T12:08:34.182Z,75.26
2022-10-10T12:11:08.301Z,75.45
2022-10-10T12:13:38.121Z,73.84
2022-10-10T12:16:08.548Z,74.22
2022-10-10T12:18:41.159Z,73.37
2022-10-10T12:21:10.246Z,74.31
2022-10-10T12:23:40.980Z,73.14
2022-10-10T12:26:14.469Z,73.33
2022-10-10T12:29:00.748Z,73.73
2022-10-10T12:31:32.232Z,73.14
2022-10-10T12:34:03.370Z,73.24
2022-10-10T12:37:21.924Z,73.48
2022-10-10T12:40:21.306Z,73.72
2022-10-10T12:43:22.187Z,73.60
2022-10-10T12:45:57.750Z,74.20
2022-10-10T12:48:25.625Z,73.28
2022-10-10T12:50:58.095Z,73.77
2022-10-10T12:53:27.962Z,74.00
2022-10-10T12:55:57.997Z,74.76
2022-10-10T12:58:28.636Z,74.82
2022-10-10T13:00:58.108Z,74.24
2022-10-10T13:03:29.581Z,75.12
2022-10-10T13:06:00.096Z,75.21
2022-10-10T13:08:31.225Z,75.02
2022-10-10T13:11:05.967Z,75.56
2022-10-10T13:13:33.869Z,74.74
2022-10-10T13:16:08.211Z,75.26
2022-10-10T13:18:37.434Z,75.72
2022-10-10T13:21:07.304Z,75.08
2022-10-10T13:23:35.747Z,75.43
2022-10-10T13:26:04.977Z,76.03
2022-10-10T13:28:33.080Z,75.25
2022-10-10T13:31:03.057Z,75.49
2022-10-10T13:33:33.696Z,74.81
2022-10-10T13:36:09.125Z,75.18
2022-10-10T13:38:37.048Z,74.98
2022-10-10T13:41:06.417Z,75.28
2022-10-10T13:43:34.264Z,75.41
2022-10-10T13:46:03.541Z,75.66
2022-10-10T13:48:40.992Z,75.88
2022-10-10T13:51:10.942Z,76.51
2022-10-10T13:53:53.144Z,76.03
2022-10-10T13:56:25.173Z,75.18
2022-10-10T13:58:54.708Z,74.74
2022-10-10T14:01:29.483Z,74.88
2022-10-10T14:04:00.473Z,74.80
2022-10-10T14:06:28.744Z,74.53
2022-10-10T14:08:58.881Z,74.56
2022-10-10T14:11:29.149Z,74.77
2022-10-10T14:14:02.086Z,75.46
2022-10-10T14:16:29.843Z,75.84
2022-10-10T14:18:57.486Z,74.69
2022-10-10T14:21:25.638Z,74.44
2022-10-10T14:23:53.300Z,73.94
2022-10-10T14:26:21.786Z,73.52
2022-10-10T14:28:50.985Z,73.54
2022-10-10T14:31:19.043Z,73.77
2022-10-10T14:33:46.712Z,73.93
2022-10-10T14:36:14.910Z,72.75
2022-10-10T14:38:42.553Z,73.57
2022-10-10T14:41:12.872Z,74.00
2022-10-10T14:43:45.466Z,73.28
2022-10-10T14:46:18.185Z,73.52
2022-10-10T14:48:45.861Z,73.43
2022-10-10T14:51:34.695Z,73.25
2022-10-10T14:54:10.372Z,73.06
2022-10-10T14:57:09.043Z,73.65
2022-10-10T14:59:48.508Z,73.95
2022-10-10T15:02:20.083Z,73.81
2022-10-10T15:04:47.850Z,74.02
2022-10-10T15:07:15.949Z,73.86
2022-10-10T15:10:09.552Z,73.61
2022-10-10T15:12:32.436Z,74.08
2022-10-10T15:15:00.114Z,73.81
2022-10-10T15:17:30.355Z,74.65
2022-10-10T15:19:58.046Z,74.41
2022-10-10T15:22:25.721Z,74.59
2022-10-10T15:24:53.408Z,74.88
2022-10-10T15:27:21.222Z,74.60
2022-10-10T15:29:48.916Z,74.59
2022-10-10T15:32:16.577Z,74.61
2022-10-10T15:34:48.452Z,75.55
2022-10-10T15:37:16.151Z,75.29
2022-10-10T15:39:45.661Z,75.01
2022-10-10T15:42:18.550Z,74.88
2022-10-10T15:44:49.387Z,75.65
2022-10-10T15:47:18.207Z,76.08
2022-10-10T15:49:47.415Z,75.53
2022-10-10T15:52:15.277Z,75.79
2022-10-10T15:54:43.043Z,76.24
2022-10-10T15:57:13.203Z,75.88
2022-10-10T15:59:44.203Z,75.78
2022-10-10T16:02:12.277Z,75.65
2022-10-10T16:04:39.953Z,75.84
2022-10-10T16:07:29.231Z,75.83
2022-10-10T16:09:57.731Z,75.53
2022-10-10T16:12:25.401Z,75.79
2022-10-10T16:14:53.065Z,75.72
2022-10-10T16:17:23.378Z,75.53
2022-10-10T16:19:51.399Z,76.05
2022-10-10T16:22:20.507Z,75.87
2022-10-10T16:25:20.755Z,75.42
2022-10-10T16:27:36.808Z,75.80
2022-10-10T16:30:05.266Z,75.60
2022-10-10T16:32:34.927Z,75.93
2022-10-10T16:35:06.227Z,75.79
2022-10-10T16:37:35.263Z,75.67
2022-10-10T16:40:02.934Z,75.69
2022-10-10T16:42:30.610Z,75.91
2022-10-10T16:44:58.265Z,76.16
2022-10-10T16:47:25.922Z,76.43
2022-10-10T16:49:53.615Z,76.53
2022-10-10T16:52:21.261Z,77.20
2022-10-10T16:54:52.367Z,77.02
2022-10-10T16:57:20.628Z,77.77
2022-10-10T16:59:48.287Z,78.15
2022-10-10T17:02:16.151Z,80.21
2022-10-10T17:04:43.964Z,80.73
2022-10-10T17:07:11.627Z,82.14
2022-10-10T17:09:39.290Z,83.17
2022-10-10T17:12:08.359Z,83.66
2022-10-10T17:14:36.017Z,83.84
2022-10-10T17:17:13.440Z,85.04
2022-10-10T17:19:41.626Z,84.45
2022-10-10T17:22:09.337Z,84.31
2022-10-10T17:24:38.107Z,85.58
2022-10-10T17:27:05.988Z,87.36
2022-10-10T17:29:34.981Z,86.26
2022-10-10T17:32:06.682Z,88.59
2022-10-10T17:34:35.033Z,87.54
2022-10-10T17:37:05.943Z,89.22
2022-10-10T17:39:34.030Z,89.82
2022-10-10T17:42:03.831Z,88.77
2022-10-10T17:44:34.615Z,89.98
2022-10-10T17:47:06.545Z,89.41
2022-10-10T17:49:34.246Z,90.52
2022-10-10T17:52:03.384Z,90.36
2022-10-10T17:54:31.048Z,91.99
2022-10-10T17:56:58.747Z,91.65
2022-10-10T17:59:26.457Z,90.49
2022-10-10T18:01:54.605Z,91.27
2022-10-10T18:04:23.623Z,90.02
2022-10-10T18:06:51.324Z,91.33
2022-10-10T18:09:19.036Z,91.80
2022-10-10T18:11:46.728Z,92.32
2022-10-10T18:14:14.420Z,91.94
2022-10-10T18:16:42.107Z,94.49
2022-10-10T18:19:09.781Z,93.31
2022-10-10T18:21:38.920Z,94.42
2022-10-10T18:24:07.141Z,93.79
2022-10-10T18:26:35.975Z,92.31
2022-10-10T18:29:04.960Z,92.32
2022-10-10T18:31:34.912Z,92.21
2022-10-10T18:34:04.551Z,91.25
2022-10-10T18:36:35.310Z,91.09
2022-10-10T18:39:06.422Z,89.97
2022-10-10T18:41:34.932Z,89.10
2022-10-10T18:44:04.524Z,88.45
2022-10-10T18:46:32.826Z,87.60
2022-10-10T18:49:03.045Z,87.30
2022-10-10T18:51:31.116Z,86.28
2022-10-10T18:54:02.961Z,86.79
2022-10-10T18:56:33.480Z,86.09
2022-10-10T18:59:03.006Z,86.05
2022-10-10T19:01:33.020Z,85.68
2022-10-10T19:04:01.086Z,85.59
2022-10-10T19:06:28.799Z,85.37
2022-10-10T19:08:57.537Z,85.78
2022-10-10T19:11:26.705Z,85.25
2022-10-10T19:13:55.999Z,84.87
2022-10-10T19:16:23.686Z,85.00
2022-10-10T19:18:54.256Z,85.35
2022-10-10T19:21:26.575Z,84.38
2022-10-10T19:23:54.847Z,84.06
2022-10-10T19:26:22.710Z,83.56
2022-10-10T19:28:50.428Z,83.11
2022-10-10T19:31:20.467Z,83.00
2022-10-10T19:33:52.577Z,82.60
2022-10-10T19:36:20.530Z,82.93
2022-10-10T19:38:48.268Z,82.02
2022-10-10T19:41:16.468Z,82.54
2022-10-10T19:43:45.385Z,82.36
2022-10-10T19:46:15.204Z,81.93
2022-10-10T19:48:44.739Z,82.32
2022-10-10T19:51:14.715Z,82.04
2022-10-10T19:53:43.319Z,81.98
2022-10-10T19:56:12.950Z,81.86
2022-10-10T19:58:41.008Z,81.45
2022-10-10T20:01:09.266Z,81.55
2022-10-10T20:03:37.033Z,81.48
2022-10-10T20:06:06.989Z,81.22
2022-10-10T20:08:35.104Z,81.66
2022-10-10T20:11:03.207Z,81.96
2022-10-10T20:13:31.578Z,81.72
2022-10-10T20:16:00.981Z,81.83
2022-10-10T20:18:28.993Z,81.61
2022-10-10T20:20:56.721Z,82.42
2022-10-10T20:23:26.459Z,82.18
2022-10-10T20:25:54.154Z,81.59
2022-10-10T20:28:22.515Z,82.05
2022-10-10T20:30:51.647Z,81.99
2022-10-10T20:33:20.342Z,82.03
2022-10-10T20:35:52.377Z,82.42
2022-10-10T20:38:21.560Z,82.06
2022-10-10T20:40:50.596Z,82.37
2022-10-10T20:43:18.316Z,82.35
2022-10-10T20:45:46.029Z,82.68
2022-10-10T20:48:13.742Z,83.03
2022-10-10T20:50:44.553Z,82.44
2022-10-10T20:53:12.983Z,83.17
2022-10-10T20:55:40.742Z,83.41
2022-10-10T20:58:09.848Z,83.61
2022-10-10T21:00:40.684Z,82.54
2022-10-10T21:03:08.482Z,83.01
2022-10-10T21:05:36.266Z,82.75
2022-10-10T21:08:04.539Z,82.93
2022-10-10T21:10:32.652Z,82.48
2022-10-10T21:13:00.511Z,81.97
2022-10-10T21:15:31.469Z,82.40
2022-10-10T21:17:59.845Z,82.46
2022-10-10T21:20:27.529Z,82.13
2022-10-10T21:22:55.611Z,82.55
2022-10-10T21:25:23.280Z,82.67
2022-10-10T21:27:50.949Z,81.99
2022-10-10T21:30:18.788Z,83.17
2022-10-10T21:32:47.812Z,82.63
2022-10-10T21:35:15.521Z,82.47
2022-10-10T21:37:44.151Z,82.03
2022-10-10T21:40:12.628Z,82.02
2022-10-10T21:42:40.313Z,81.86
2022-10-10T21:45:09.357Z,82.59
2022-10-10T21:47:37.021Z,81.62
2022-10-10T21:50:06.941Z,81.69
2022-10-10T21:52:34.632Z,81.97
2022-10-10T21:55:03.484Z,81.50
2022-10-10T21:57:31.168Z,81.88
2022-10-10T21:59:58.846Z,81.54
2022-10-10T22:02:26.511Z,81.59
2022-10-10T22:04:54.536Z,81.50
2022-10-10T22:07:23.549Z,81.16
2022-10-10T22:09:51.259Z,81.31
2022-10-10T22:12:18.956Z,81.46
2022-10-10T22:14:46.638Z,81.79
2022-10-10T22:17:14.297Z,81.67
2022-10-10T22:19:42.080Z,81.59
2022-10-10T22:22:09.762Z,81.44
2022-10-10T22:24:38.800Z,81.48
2022-10-10T22:27:06.794Z,82.23
2022-10-10T22:29:34.541Z,81.77
2022-10-10T22:32:03.000Z,82.45
2022-10-10T22:34:30.642Z,82.14
2022-10-10T22:36:58.318Z,81.41
2022-10-10T22:39:25.960Z,81.97
2022-10-10T22:41:55.028Z,81.54
2022-10-10T22:44:22.688Z,81.89
2022-10-10T22:46:50.448Z,81.52
2022-10-10T22:49:18.397Z,81.67
2022-10-10T22:51:46.080Z,81.70
2022-10-10T22:54:14.420Z,82.61
2022-10-10T22:56:42.088Z,82.71
2022-10-10T22:59:11.084Z,82.66
2022-10-10T23:01:38.770Z,82.45
2022-10-10T23:04:11.428Z,82.12
2022-10-10T23:06:39.117Z,81.58
2022-10-10T23:09:06.862Z,82.16
2022-10-10T23:11:34.527Z,81.98
2022-10-10T23:14:03.036Z,81.88
2022-10-10T23:16:36.503Z,81.97
2022-10-10T23:19:07.416Z,82.32
2022-10-10T23:21:35.085Z,82.46
2022-10-10T23:24:02.822Z,82.54
2022-10-10T23:26:30.512Z,83.05
2022-10-10T23:28:58.315Z,82.16
2022-10-10T23:31:26.213Z,82.42
2022-10-10T23:33:55.226Z,82.62
2022-10-10T23:36:22.939Z,81.73
2022-10-10T23:38:50.593Z,82.06
2022-10-10T23:41:18.273Z,82.31
2022-10-10T23:43:46.017Z,81.89
2022-10-10T23:46:14.055Z,81.64
2022-10-10T23:48:41.711Z,81.63
2022-10-10T23:51:10.864Z,81.81
2022-10-10T23:53:38.628Z,81.18
2022-10-10T23:56:07.026Z,81.16
2022-10-10T23:58:35.371Z,80.97
